Athens Township, Pennsylvania
Current Conditions -  °F | °C
As of 9:53 AM on Monday 22 Dec 2014 (Local Time) from KBGM Reporting Station
Overcast Overcast  
Wind Chill: -6°   Ceiling: 1100
Heat Index: -1°   Visibility: 10mi
Dew Point: -4°   Wind: 10mph
Humidity: 82%   Direction: 170°S
Pressure: 30.24"   Gusts: 17mph
Location:  41.9771°N, 76.4144°W
Report Text: KBGM 221453Z 17009G15KT 10SM OVC011 M01/M04 A3024 RMK AO2 SLP260 T10111039 53006
Loading
Personal Weather Stations






























Interactive Weather Map New forecast layout! Learn more

10-Day Weather Forecast

Advertisements
Track Severe Weather on mobile